Flight Track Log - Related Links

Times and Time Zones

All times are in EDT time to prevent confusion due to time zone crossing. See the N910GT flight status page for this flight to view local times or setup timezone preferences in your user account.


Time Position Orientation Groundspeed Altitude Reporting Facility
EDT Latitude Longitude Course Direction KTS MPH feet Rate Location/Type
Tue 06:17:57 PM 36.3950 -84.5683 172° South 130 150 3,600  Level Indianapolis Center
Tue 06:18:59 PM 36.3603 -84.5600 169° South 128 147 4,300 823 Climbing Indianapolis Center
Tue 06:20:01 PM 36.3247 -84.5514 169° South 128 147 5,300 1,065 Climbing Indianapolis Center
Tue 06:21:03 PM 36.2828 -84.5403 168° South 128 147 6,500 1,065 Climbing Indianapolis Center
Tue 06:22:05 PM 36.2508 -84.5317 168° South 120 138 7,500 919 Climbing Indianapolis Center
Tue 06:23:00 PM 36.1992 -84.5110 172° South  Level FlightAware Approximate
Tue 06:23:07 PM 36.2186 -84.5228 167° South 118 136 8,400  Level Indianapolis Center
Tue 06:24:09 PM 36.1828 -84.5139 169° South 129 148 9,200 774 Climbing Indianapolis Center
Tue 06:25:11 PM 36.1461 -84.5053 169° South 132 152 10,000 774 Climbing Indianapolis Center
Tue 06:26:13 PM 36.1078 -84.4950 168° South 138 159 10,800 774 Climbing Indianapolis Center
Tue 06:27:15 PM 36.0683 -84.4869 171° South 142 163 11,600 844 Climbing Indianapolis Center
Tue 06:28:21 PM 36.0178 -84.4753 169° South 145 167 12,600 857 Climbing Atlanta Center
Tue 06:29:21 PM 35.9803 -84.4622 164° South 145 167 13,400 700 Climbing Atlanta Center
Tue 06:30:21 PM 35.9408 -84.4414 157° South 145 167 14,000 300 Climbing Atlanta Center
Tue 06:31:21 PM 35.8950 -84.4156 155° Southeast 157 181 14,000  Level Atlanta Center
Tue 06:32:21 PM 35.8492 -84.3922 158° South 171 197 14,000  Level Atlanta Center
Tue 06:33:21 PM 35.8014 -84.3664 156° South 177 204 14,000  Level Atlanta Center
Tue 06:34:21 PM 35.7533 -84.3408 157° South 187 215 14,000  Level Atlanta Center
Tue 06:35:21 PM 35.7033 -84.3150 157° South 187 215 14,000  Level Atlanta Center
Tue 06:36:21 PM 35.6575 -84.2917 158° South 187 215 14,000  Level Atlanta Center
Tue 06:37:21 PM 35.6117 -84.2661 156° South 187 215 14,000  Level Atlanta Center
Tue 06:38:21 PM 35.5658 -84.2406 156° South 187 215 14,000  Level Atlanta Center
Tue 06:39:21 PM 35.5200 -84.2175 158° South 187 215 14,000  Level Atlanta Center
Tue 06:40:21 PM 35.4761 -84.1944 157° South 187 215 14,000  Level Atlanta Center
Tue 06:41:21 PM 35.4303 -84.1714 158° South 187 215 14,000  Level Atlanta Center
Tue 06:42:21 PM 35.3822 -84.1458 157° South 187 215 14,000  Level Atlanta Center
Tue 06:43:21 PM 35.3344 -84.1203 156° South 187 215 14,000  Level Atlanta Center
Tue 06:44:21 PM 35.2844 -84.0947 157° South 187 215 14,000  Level Atlanta Center
Tue 06:45:21 PM 35.2342 -84.0692 157° South 187 215 14,000  Level Atlanta Center
Tue 06:46:21 PM 35.1864 -84.0439 157° South 187 215 14,000  Level Atlanta Center
Tue 06:47:21 PM 35.1383 -84.0183 156° South 187 215 14,000  Level Atlanta Center
Tue 06:48:21 PM 35.0903 -83.9956 159° South 187 215 14,000  Level Atlanta Center
Tue 06:49:21 PM 35.0422 -83.9703 157° South 187 215 14,000  Level Atlanta Center
Tue 06:50:21 PM 34.9900 -83.9703 180° South 187 215 14,000  Level Atlanta Center
Tue 06:51:21 PM 34.9400 -83.9678 178° South 187 215 14,000  Level Atlanta Center
Tue 06:52:21 PM 34.8878 -83.9678 180° South 182 209 14,000  Level Atlanta Center
Tue 06:53:21 PM 34.8378 -83.9678 180° South 177 204 14,000 -250 Level Atlanta Center
Tue 06:54:21 PM 34.7836 -83.9681 180° South 184 212 13,500 -500 Descending Atlanta Center
Tue 06:55:21 PM 34.7356 -83.9681 180° South 189 217 13,000 -550 Descending Atlanta Center
Tue 06:56:21 PM 34.6792 -83.9681 180° South 199 229 12,400 -650 Descending Atlanta Center
Tue 06:57:21 PM 34.6167 -83.9631 176° South 199 229 11,700 -650 Descending Atlanta Center
Tue 06:58:21 PM 34.5644 -83.9631 180° South 189 217 11,100 -600 Descending Atlanta Center
Tue 06:59:21 PM 34.5142 -83.9656 182° South 194 223 10,500 -600 Descending Atlanta Center
Tue 07:00:21 PM 34.4600 -83.9658 180° South 194 223 9,900 -600 Descending Atlanta Center
Tue 07:01:21 PM 34.4058 -83.9658 180° South 199 229 9,300 -550 Descending Atlanta Center
Tue 07:02:21 PM 34.3597 -83.9658 180° South 194 223 8,800 -550 Descending Atlanta Center
Tue 07:03:21 PM 34.3056 -83.9633 178° South 194 223 8,200 -600 Descending Atlanta Center
Tue 07:04:21 PM 34.2533 -83.9658 182° South 194 223 7,600 -600 Descending Atlanta Center
Tue 07:05:21 PM 34.2033 -83.9633 178° South 194 223 7,000 -600 Descending Atlanta Center
Tue 07:06:21 PM 34.1511 -83.9633 180° South 194 223 6,400 -600 Descending Atlanta Center
Tue 07:07:21 PM 34.0969 -83.9636 180° South 194 223 5,800 -644 Descending Atlanta Center
Tue 07:08:50 PM 34.0333 -84.0167 215° Southwest 190 219 4,800 -644 Descending Atlanta TRACON
Tue 07:09:50 PM 34.0167 -84.0667 248° West 183 211 4,200 -400 Descending Atlanta TRACON
Tue 07:10:50 PM 34.0000 -84.1333 253° West 174 200 4,000 -100 Descending Atlanta TRACON
Tue 07:11:50 PM 33.9833 -84.1667 239° Southwest 162 186 4,000 -50 Level Atlanta TRACON
Tue 07:12:50 PM 33.9333 -84.1833 195° South 147 169 3,900 -421 Descending Atlanta TRACON
Tue 07:13:44 PM 33.9000 -84.1667 157° South 177 204 3,200 -474 Descending Atlanta TRACON
Tue 07:14:44 PM 33.9167 -84.1167 68° East 141 162 3,000 -100 Descending Atlanta TRACON
Tue 07:15:44 PM 33.9333 -84.0833 59° Northeast 125 144 3,000 -250 Level Atlanta TRACON
Tue 07:16:44 PM 33.9500 -84.0500 59° Northeast 109 125 2,500 -550 Descending Atlanta TRACON
Tue 07:17:44 PM 33.9500 -84.0167 90° East 104 120 1,900 -600 Descending Atlanta TRACON
Tue 07:19:00 PM 33.9667 -83.9500 75° East  Level FlightAware Approximate

Login

Don't have an account? Register now (free) for customized features, flight alerts, and more!